Time;durP1;ratioP1;P1;durP2;ratioP2;P2;SDS_P1;SDS_P2;PMS_P1;PMS_P2;Temp;Humidity;BMP_temperature;BMP_pressure;BME280_temperature;BME280_humidity;BME280_pressure;Samples;Min_cycle;Max_cycle;Signal;HPM_P1;HPM_P2
2023/03/09 00:01:16;;;;;;;;;;;;;;;0.97;76.95;98935.11;106096;1288;72353;-77
2023/03/09 00:04:02;;;;;;;;;;;;;;;0.95;77.01;98937.50;106220;1288;57963;-77
2023/03/09 00:06:48;;;;;;;;;;;;;;;0.94;77.02;98945.98;106240;1291;59838;-77
2023/03/09 00:09:34;;;;;;;;;;;;;;;0.92;77.05;98942.60;106209;1289;74372;-77
2023/03/09 00:12:22;;;;;;;;;;;;;;;0.90;77.01;98940.40;106204;1289;68704;-77
2023/03/09 00:15:09;;;;;;;;;;;;;;;0.88;77.02;98938.20;106196;1288;71586;-77
2023/03/09 00:17:55;;;;;;;;;;;;;;;0.84;77.00;98939.41;106199;1289;58176;-77
2023/03/09 00:20:41;;;;;;;;;;;;;;;0.82;77.09;98941.11;106214;1288;61018;-77
2023/03/09 00:23:27;;;;;;;;;;;;;;;0.83;77.13;98945.35;105919;1289;73159;-76
2023/03/09 00:26:13;;;;;;;;;;;;;;;0.83;77.16;98942.98;104718;1290;69966;-76
2023/03/09 00:28:59;;;;;;;;;;;;;;;0.82;77.22;98938.40;104749;1293;73936;-76
2023/03/09 00:31:46;;;;;;;;;;;;;;;0.82;77.26;98931.95;104726;1289;60366;-77
2023/03/09 00:34:32;;;;;;;;;;;;;;;0.84;77.32;98927.19;104833;1288;62464;-77
2023/03/09 00:37:18;;;;;;;;;;;;;;;0.84;77.22;98928.72;104758;1292;73484;-76
2023/03/09 00:40:06;;;;;;;;;;;;;;;0.81;77.26;98928.05;104691;1292;69774;-76
2023/03/09 00:42:52;;;;;;;;;;;;;;;0.79;77.32;98922.97;104611;1294;74968;-76
2023/03/09 00:45:38;;;;;;;;;;;;;;;0.78;77.40;98916.53;104725;1289;60371;-76
2023/03/09 00:48:25;;;;;;;;;;;;;;;0.78;77.42;98915.67;104726;1288;60365;-76
2023/03/09 00:51:11;;;;;;;;;;;;;;;0.75;77.37;98909.09;104695;1291;72466;-76
2023/03/09 00:53:57;;;;;;;;;;;;;;;0.73;77.41;98914.86;104635;1288;67214;-76
2023/03/09 00:56:43;;;;;;;;;;;;;;;0.72;77.43;98912.31;104683;1288;73939;-76
2023/03/09 00:59:30;;;;;;;;;;;;;;;0.71;77.45;98907.39;104724;1288;59240;-76
2023/03/09 01:02:16;;;;;;;;;;;;;;;0.70;77.35;98905.02;104781;1290;60393;-76
2023/03/09 01:05:03;;;;;;;;;;;;;;;0.69;77.48;98900.63;104823;1288;73369;-76
2023/03/09 01:07:49;;;;;;;;;;;;;;;0.68;77.32;98895.71;104784;1288;68086;-76
2023/03/09 01:10:37;;;;;;;;;;;;;;;0.65;77.35;98886.57;104660;1288;73296;-76
2023/03/09 01:13:24;;;;;;;;;;;;;;;0.62;77.41;98879.45;104729;1290;60451;-76
2023/03/09 01:16:10;;;;;;;;;;;;;;;0.61;77.37;98878.95;104537;1289;60341;-76
2023/03/09 01:18:56;;;;;;;;;;;;;;;0.57;77.34;98875.23;104629;1288;73730;-76
2023/03/09 01:21:42;;;;;;;;;;;;;;;0.57;77.40;98877.77;104789;1291;67860;-76
2023/03/09 01:24:28;;;;;;;;;;;;;;;0.55;77.28;98879.98;104571;1293;70460;-76
2023/03/09 01:27:15;;;;;;;;;;;;;;;0.55;77.36;98879.14;104733;1288;62647;-76
2023/03/09 01:30:01;;;;;;;;;;;;;;;0.55;77.22;98885.42;104707;1290;60365;-76
2023/03/09 01:32:47;;;;;;;;;;;;;;;0.53;77.28;98891.02;104727;1288;76483;-76
2023/03/09 01:35:33;;;;;;;;;;;;;;;0.53;77.33;98895.08;104741;1288;67252;-76
2023/03/09 01:38:19;;;;;;;;;;;;;;;0.51;77.30;98899.19;104600;1288;72168;-76
2023/03/09 01:41:06;;;;;;;;;;;;;;;0.51;77.24;98896.48;104682;1288;60209;-76
2023/03/09 01:43:52;;;;;;;;;;;;;;;0.50;77.27;98890.89;104649;1293;60890;-76
2023/03/09 01:46:54;;;;;;;;;;;;;;;0.51;77.30;98897.83;104715;1290;72411;-76
2023/03/09 01:49:43;;;;;;;;;;;;;;;0.49;77.26;98896.66;104703;1288;69002;-76
2023/03/09 01:52:32;;;;;;;;;;;;;;;0.48;77.32;98888.17;104711;1288;72077;-76
2023/03/09 01:55:22;;;;;;;;;;;;;;;0.47;77.24;98881.40;104711;1290;60279;-76
2023/03/09 01:58:11;;;;;;;;;;;;;;;0.47;77.27;98884.80;104606;1288;60124;-76
2023/03/09 02:00:58;;;;;;;;;;;;;;;0.46;77.23;98883.95;104732;1290;72284;-76
2023/03/09 02:03:46;;;;;;;;;;;;;;;0.46;77.31;98887.51;104650;1289;67902;-75
2023/03/09 02:06:33;;;;;;;;;;;;;;;0.46;77.32;98885.80;104733;1288;75410;-75
2023/03/09 02:09:23;;;;;;;;;;;;;;;0.47;77.36;98886.15;104833;1288;59191;-75
2023/03/09 02:12:13;;;;;;;;;;;;;;;0.47;77.40;98885.65;104753;1289;59880;-75
2023/03/09 02:15:01;;;;;;;;;;;;;;;0.48;77.40;98881.06;104759;1288;73304;-75
2023/03/09 02:17:49;;;;;;;;;;;;;;;0.46;77.32;98881.06;104593;1288;67463;-75
2023/03/09 02:21:01;;;;;;;;;;;;;;;0.44;77.28;98888.36;104736;1288;73022;-75
2023/03/09 02:23:52;;;;;;;;;;;;;;;0.43;77.37;98888.38;104110;1296;60491;-75
2023/03/09 02:26:42;;;;;;;;;;;;;;;0.42;77.35;98890.91;104034;1296;60450;-76
2023/03/09 02:29:29;;;;;;;;;;;;;;;0.40;77.34;98884.48;104050;1295;72843;-75
2023/03/09 02:32:15;;;;;;;;;;;;;;;0.38;77.33;98881.44;103954;1299;69154;-75
2023/03/09 02:35:02;;;;;;;;;;;;;;;0.37;77.39;98889.57;104067;1296;74355;-75
2023/03/09 02:37:48;;;;;;;;;;;;;;;0.37;77.38;98903.46;104087;1296;60463;-75
2023/03/09 02:40:35;;;;;;;;;;;;;;;0.38;77.42;98906.35;104051;1296;60494;-75
2023/03/09 02:43:24;;;;;;;;;;;;;;;0.38;77.43;98909.91;103991;1296;73488;-75
2023/03/09 02:46:10;;;;;;;;;;;;;;;0.39;77.46;98908.38;104059;1295;68546;-76
2023/03/09 02:48:57;;;;;;;;;;;;;;;0.37;77.35;98900.76;104009;1295;72097;-76
2023/03/09 02:51:43;;;;;;;;;;;;;;;0.36;77.39;98893.98;104047;1296;62521;-75
2023/03/09 02:54:30;;;;;;;;;;;;;;;0.34;77.38;98891.95;104074;1295;60377;-76
2023/03/09 02:57:16;;;;;;;;;;;;;;;0.34;77.43;98893.65;104054;1295;74167;-76
2023/03/09 03:00:03;;;;;;;;;;;;;;;0.35;77.39;98898.23;104132;1299;67265;-76
2023/03/09 03:02:50;;;;;;;;;;;;;;;0.36;77.47;98903.13;104427;1293;71514;-76
2023/03/09 03:05:36;;;;;;;;;;;;;;;0.37;77.49;98906.02;104510;1289;60490;-76
2023/03/09 03:08:22;;;;;;;;;;;;;;;0.38;77.51;98914.48;104437;1290;64946;-76
2023/03/09 03:11:08;;;;;;;;;;;;;;;0.37;77.60;98910.92;104468;1293;72977;-76
2023/03/09 03:13:55;;;;;;;;;;;;;;;0.36;77.52;98907.53;104477;1291;69921;-76
2023/03/09 03:16:41;;;;;;;;;;;;;;;0.35;77.60;98904.48;104428;1292;71489;-76
2023/03/09 03:19:27;;;;;;;;;;;;;;;0.38;77.57;98894.31;104575;1289;60462;-76
2023/03/09 03:22:13;;;;;;;;;;;;;;;0.37;77.69;98891.27;104405;1290;60451;-77
2023/03/09 03:24:59;;;;;;;;;;;;;;;0.35;77.68;98897.04;104492;1289;75265;-76
2023/03/09 03:27:46;;;;;;;;;;;;;;;0.34;77.62;98892.30;104442;1289;68905;-76
2023/03/09 03:30:32;;;;;;;;;;;;;;;0.34;77.61;98892.63;104287;1291;72191;-76
2023/03/09 03:33:18;;;;;;;;;;;;;;;0.34;77.70;98890.26;104506;1289;60374;-76
2023/03/09 03:36:05;;;;;;;;;;;;;;;0.35;77.70;98890.92;104532;1290;61045;-76
2023/03/09 03:38:51;;;;;;;;;;;;;;;0.35;77.70;98891.78;104474;1290;75220;-76
2023/03/09 03:41:37;;;;;;;;;;;;;;;0.35;77.74;98891.77;104513;1291;68396;-76
2023/03/09 03:44:23;;;;;;;;;;;;;;;0.34;77.69;98890.59;104574;1290;71201;-76
2023/03/09 03:47:09;;;;;;;;;;;;;;;0.33;77.89;98889.91;104532;1290;59788;-76
2023/03/09 03:49:55;;;;;;;;;;;;;;;0.35;77.86;98889.23;104831;1290;62747;-76
2023/03/09 03:52:41;;;;;;;;;;;;;;;0.35;77.83;98877.71;105111;1289;73130;-76
2023/03/09 03:55:28;;;;;;;;;;;;;;;0.33;77.88;98873.48;104964;1289;67432;-76
2023/03/09 03:58:14;;;;;;;;;;;;;;;0.30;77.87;98871.11;105151;1289;71457;-76
2023/03/09 04:01:00;;;;;;;;;;;;;;;0.29;77.90;98874.16;105179;1288;60367;-76
2023/03/09 04:03:46;;;;;;;;;;;;;;;0.28;77.89;98879.09;105117;1289;60306;-76
2023/03/09 04:06:32;;;;;;;;;;;;;;;0.27;77.92;98884.34;105173;1287;76568;-76
2023/03/09 04:09:18;;;;;;;;;;;;;;;0.26;77.98;98882.48;105248;1288;70472;-76
2023/03/09 04:12:04;;;;;;;;;;;;;;;0.25;77.95;98882.83;105192;1288;75423;-76
2023/03/09 04:14:50;;;;;;;;;;;;;;;0.25;78.01;98885.54;105054;1288;60429;-76
2023/03/09 04:17:36;;;;;;;;;;;;;;;0.23;77.93;98892.14;105138;1288;60483;-76
2023/03/09 04:20:22;;;;;;;;;;;;;;;0.24;77.98;98891.64;105166;1289;72390;-76
2023/03/09 04:23:10;;;;;;;;;;;;;;;0.24;77.99;98880.80;101289;1290;5003461;-76
2023/03/09 04:25:57;;;;;;;;;;;;;;;0.26;78.01;98881.46;105022;1289;71138;-77
2023/03/09 04:28:43;;;;;;;;;;;;;;;0.25;77.97;98881.13;105065;1287;59316;-77
2023/03/09 04:31:29;;;;;;;;;;;;;;;0.26;78.00;98878.41;105185;1291;60306;-76
2023/03/09 04:34:16;;;;;;;;;;;;;;;0.28;78.01;98877.90;105214;1289;75347;-76
2023/03/09 04:37:02;;;;;;;;;;;;;;;0.29;78.07;98877.21;105206;1288;67327;-76
2023/03/09 04:39:48;;;;;;;;;;;;;;;0.29;78.00;98873.48;105171;1289;74050;-76
2023/03/09 04:42:34;;;;;;;;;;;;;;;0.30;77.99;98873.65;105143;1289;60478;-77
2023/03/09 04:45:20;;;;;;;;;;;;;;;0.30;78.04;98873.49;105206;1288;58583;-76
2023/03/09 04:48:06;;;;;;;;;;;;;;;0.30;78.06;98873.33;105070;1289;73007;-76
2023/03/09 04:50:52;;;;;;;;;;;;;;;0.30;78.05;98870.95;105222;1291;67014;-76
2023/03/09 04:53:38;;;;;;;;;;;;;;;0.31;78.06;98870.27;105174;1289;71228;-76
2023/03/09 04:56:24;;;;;;;;;;;;;;;0.31;78.06;98871.29;105110;1288;61251;-76
2023/03/09 04:59:10;;;;;;;;;;;;;;;0.31;78.07;98869.59;105060;1291;61243;-76
2023/03/09 05:01:56;;;;;;;;;;;;;;;0.31;78.00;98869.76;105089;1288;74422;-76
2023/03/09 05:04:42;;;;;;;;;;;;;;;0.30;78.06;98869.09;105098;1288;67387;-77
2023/03/09 05:07:29;;;;;;;;;;;;;;;0.29;78.07;98865.18;105089;1292;71881;-76
2023/03/09 05:10:15;;;;;;;;;;;;;;;0.29;78.04;98868.74;105113;1288;62015;-76
2023/03/09 05:13:01;;;;;;;;;;;;;;;0.30;78.10;98872.13;105077;1289;61209;-76
2023/03/09 05:15:48;;;;;;;;;;;;;;;0.31;78.11;98870.61;104997;1290;73316;-76
2023/03/09 05:18:34;;;;;;;;;;;;;;;0.30;77.99;98869.59;105121;1288;69952;-77
2023/03/09 05:21:21;;;;;;;;;;;;;;;0.30;78.12;98874.85;105104;1288;74048;-77
2023/03/09 05:24:07;;;;;;;;;;;;;;;0.32;78.21;98874.67;105111;1288;59902;-77
2023/03/09 05:26:53;;;;;;;;;;;;;;;0.33;78.21;98879.59;105195;1291;61149;-77
2023/03/09 05:29:39;;;;;;;;;;;;;;;0.33;78.22;98876.36;105140;1293;73435;-77
2023/03/09 05:32:25;;;;;;;;;;;;;;;0.33;78.13;98879.23;105095;1291;68624;-77
2023/03/09 05:35:11;;;;;;;;;;;;;;;0.31;78.20;98880.44;105133;1288;71655;-77
2023/03/09 05:37:57;;;;;;;;;;;;;;;0.32;78.26;98880.26;105119;1288;61374;-77
2023/03/09 05:40:43;;;;;;;;;;;;;;;0.32;78.24;98882.30;105046;1293;59547;-77
2023/03/09 05:43:30;;;;;;;;;;;;;;;0.31;78.23;98885.17;105185;1290;73174;-77
2023/03/09 05:46:17;;;;;;;;;;;;;;;0.29;78.22;98884.34;105134;1288;67121;-77
2023/03/09 05:49:03;;;;;;;;;;;;;;;0.28;78.25;98882.31;105001;1290;72967;-77
2023/03/09 05:51:49;;;;;;;;;;;;;;;0.29;78.30;98880.27;104951;1288;60515;-77
2023/03/09 05:54:36;;;;;;;;;;;;;;;0.28;78.21;98873.33;105148;1288;61011;-77
2023/03/09 05:57:23;;;;;;;;;;;;;;;0.29;78.33;98871.96;105086;1290;73931;-77
2023/03/09 06:00:12;;;;;;;;;;;;;;;0.32;78.32;98874.00;105234;1290;67425;-77
2023/03/09 06:02:59;;;;;;;;;;;;;;;0.31;78.32;98877.73;105088;1288;72481;-77
2023/03/09 06:05:45;;;;;;;;;;;;;;;0.32;78.40;98879.58;105206;1289;60031;-78
2023/03/09 06:08:32;;;;;;;;;;;;;;;0.33;78.41;98882.13;105141;1288;61156;-77
2023/03/09 06:11:18;;;;;;;;;;;;;;;0.33;78.37;98887.38;97641;1288;10001514;-77
2023/03/09 06:14:04;;;;;;;;;;;;;;;0.32;78.25;98890.60;105109;1287;72413;-77
2023/03/09 06:16:50;;;;;;;;;;;;;;;0.31;78.43;98885.69;105213;1287;59456;-77
2023/03/09 06:19:36;;;;;;;;;;;;;;;0.34;78.45;98887.55;105087;1287;60314;-77
2023/03/09 06:22:22;;;;;;;;;;;;;;;0.36;78.36;98886.52;105220;1287;73152;-77
2023/03/09 06:25:08;;;;;;;;;;;;;;;0.36;78.41;98884.83;105078;1287;67309;-77
2023/03/09 06:27:54;;;;;;;;;;;;;;;0.37;78.52;98887.37;105213;1289;71271;-77
2023/03/09 06:30:40;;;;;;;;;;;;;;;0.36;78.39;98888.38;105226;1287;61279;-77
2023/03/09 06:33:26;;;;;;;;;;;;;;;0.39;78.52;98890.92;105223;1286;61239;-77
2023/03/09 06:36:14;;;;;;;;;;;;;;;0.43;78.55;98893.63;105033;1289;73333;-77
2023/03/09 06:39:00;;;;;;;;;;;;;;;0.45;78.50;98899.71;105105;1288;69350;-77
2023/03/09 06:41:47;;;;;;;;;;;;;;;0.47;78.50;98902.26;105223;1287;72370;-77
2023/03/09 06:44:33;;;;;;;;;;;;;;;0.48;78.50;98901.91;105073;1288;61142;-77
2023/03/09 06:47:19;;;;;;;;;;;;;;;0.51;78.54;98901.73;105226;1287;59554;-77
2023/03/09 06:50:05;;;;;;;;;;;;;;;0.54;78.55;98905.25;105098;1287;74069;-77
2023/03/09 06:52:52;;;;;;;;;;;;;;;0.57;78.56;98906.10;105110;1288;67545;-77
2023/03/09 06:55:39;;;;;;;;;;;;;;;0.60;78.54;98909.98;105176;1288;71472;-77
2023/03/09 06:58:25;;;;;;;;;;;;;;;0.59;78.47;98913.55;105242;1287;59664;-77
2023/03/09 07:01:12;;;;;;;;;;;;;;;0.58;78.45;98909.81;105154;1287;59686;-77
2023/03/09 07:03:58;;;;;;;;;;;;;;;0.56;78.38;98904.56;105105;1287;74089;-77
2023/03/09 07:06:45;;;;;;;;;;;;;;;0.55;78.46;98910.34;105146;1290;70076;-77
2023/03/09 07:09:34;;;;;;;;;;;;;;;0.56;78.55;98912.53;105169;1290;71274;-77
2023/03/09 07:12:20;;;;;;;;;;;;;;;0.57;78.56;98919.48;105209;1288;62233;-77
2023/03/09 07:15:06;;;;;;;;;;;;;;;0.57;78.54;98917.79;105269;1288;59815;-77
2023/03/09 07:17:52;;;;;;;;;;;;;;;0.59;78.58;98916.09;105197;1290;74379;-77
2023/03/09 07:20:39;;;;;;;;;;;;;;;0.61;78.53;98924.89;105204;1288;67176;-77
2023/03/09 07:23:26;;;;;;;;;;;;;;;0.62;78.60;98931.34;105268;1287;71355;-77
2023/03/09 07:26:12;;;;;;;;;;;;;;;0.66;78.64;98936.75;105237;1287;59599;-77
2023/03/09 07:28:58;;;;;;;;;;;;;;;0.71;78.65;98943.01;105176;1289;59986;-77
2023/03/09 07:31:44;;;;;;;;;;;;;;;0.71;78.58;98940.98;105263;1288;73079;-77
2023/03/09 07:34:31;;;;;;;;;;;;;;;0.64;78.49;98947.95;105180;1287;68092;-77
2023/03/09 07:37:17;;;;;;;;;;;;;;;0.58;78.55;98951.86;105154;1288;71974;-77
2023/03/09 07:40:03;;;;;;;;;;;;;;;0.56;78.80;98951.53;105269;1288;61230;-77
2023/03/09 07:42:50;;;;;;;;;;;;;;;0.55;78.82;98955.27;101494;1286;5192612;-78
2023/03/09 07:45:37;;;;;;;;;;;;;;;0.55;78.74;98959.50;106200;1290;67438;-77
2023/03/09 07:48:23;;;;;;;;;;;;;;;0.53;78.83;98959.50;106147;1291;71382;-78
2023/03/09 07:51:10;;;;;;;;;;;;;;;0.53;78.90;98968.66;106283;1286;59206;-77
2023/03/09 07:53:56;;;;;;;;;;;;;;;0.54;78.88;98973.74;106147;1289;59529;-77
2023/03/09 07:56:47;;;;;;;;;;;;;;;0.54;78.93;98979.34;106232;1288;75384;-78
2023/03/09 07:59:33;;;;;;;;;;;;;;;0.49;78.98;98982.59;106176;1286;67356;-78
2023/03/09 08:02:19;;;;;;;;;;;;;;;0.55;79.14;98989.67;106217;1285;70590;-78
2023/03/09 08:05:07;;;;;;;;;;;;;;;0.61;79.14;98990.00;106282;1285;59085;-77
2023/03/09 08:07:53;;;;;;;;;;;;;;;0.65;79.17;98993.90;106134;1286;59496;-77
2023/03/09 08:10:40;;;;;;;;;;;;;;;0.68;79.06;99000.16;106286;1286;74840;-77
2023/03/09 08:13:25;;;;;;;;;;;;;;;0.70;79.12;99002.20;106294;1285;67816;-78
2023/03/09 08:16:12;;;;;;;;;;;;;;;0.73;79.20;99007.78;106167;1286;70554;-78
2023/03/09 08:18:57;;;;;;;;;;;;;;;0.74;79.15;99009.31;106349;1289;59176;-78
2023/03/09 08:21:43;;;;;;;;;;;;;;;0.70;79.17;99009.48;106323;1286;59000;-77
2023/03/09 08:24:29;;;;;;;;;;;;;;;0.69;79.30;99015.26;106199;1287;73167;-77
2023/03/09 08:27:15;;;;;;;;;;;;;;;0.65;79.34;99021.70;106327;1286;67571;-78
2023/03/09 08:30:01;;;;;;;;;;;;;;;0.67;79.46;99026.79;106285;1289;72848;-77
2023/03/09 08:32:48;;;;;;;;;;;;;;;0.71;79.55;99023.39;106284;1286;58713;-78
2023/03/09 08:35:35;;;;;;;;;;;;;;;0.75;79.48;99026.10;106166;1289;58941;-77
2023/03/09 08:38:21;;;;;;;;;;;;;;;0.75;79.39;99030.67;106152;1291;73721;-77
2023/03/09 08:41:07;;;;;;;;;;;;;;;0.75;79.37;99030.00;106135;1288;68129;-77
2023/03/09 08:43:54;;;;;;;;;;;;;;;0.75;79.45;99035.09;106223;1289;71415;-77
2023/03/09 08:46:41;;;;;;;;;;;;;;;0.75;79.40;99041.19;106333;1286;58993;-77
2023/03/09 08:49:27;;;;;;;;;;;;;;;0.79;79.54;99055.60;106370;1286;59335;-76
2023/03/09 08:52:13;;;;;;;;;;;;;;;0.85;79.60;99061.02;106399;1286;73679;-76
2023/03/09 08:54:58;;;;;;;;;;;;;;;0.89;79.58;99068.14;106424;1286;68044;-77
2023/03/09 08:57:44;;;;;;;;;;;;;;;0.92;79.60;99064.40;106288;1286;71773;-78
2023/03/09 09:00:30;;;;;;;;;;;;;;;0.96;79.56;99063.36;106344;1286;59242;-77
2023/03/09 09:03:16;;;;;;;;;;;;;;;0.98;79.57;99065.57;106222;1289;59093;-77
2023/03/09 09:06:04;;;;;;;;;;;;;;;1.02;79.63;99074.05;106176;1286;73355;-77
2023/03/09 09:08:50;;;;;;;;;;;;;;;1.01;79.46;99082.88;106336;1286;67853;-77
2023/03/09 09:11:36;;;;;;;;;;;;;;;0.98;79.52;99086.10;106363;1288;72118;-77
2023/03/09 09:14:22;;;;;;;;;;;;;;;1.01;79.67;99087.80;106320;1289;59136;-77
2023/03/09 09:17:08;;;;;;;;;;;;;;;1.03;79.56;99092.35;106365;1286;58884;-77
2023/03/09 09:19:54;;;;;;;;;;;;;;;1.02;79.63;99087.27;106397;1286;73303;-77
2023/03/09 09:22:41;;;;;;;;;;;;;;;1.03;79.62;99090.99;106409;1287;68540;-77
2023/03/09 09:25:27;;;;;;;;;;;;;;;1.04;79.61;99095.23;106395;1286;71240;-77
2023/03/09 09:28:13;;;;;;;;;;;;;;;1.08;79.91;99102.34;105944;1286;59037;-77
2023/03/09 09:31:00;;;;;;;;;;;;;;;1.13;80.01;99101.13;105420;1287;61138;-77
2023/03/09 09:33:46;;;;;;;;;;;;;;;1.19;79.98;99098.07;105235;1289;74473;-77
2023/03/09 09:36:34;;;;;;;;;;;;;;;1.17;79.90;99094.50;105365;1287;69875;-77
2023/03/09 09:39:21;;;;;;;;;;;;;;;1.13;79.93;99091.30;105100;1286;72087;-76
2023/03/09 09:42:39;;;;;;;;;;;;;;;1.13;80.10;99087.89;105404;1285;61238;-76
2023/03/09 09:45:35;;;;;;;;;;;;;;;1.16;80.22;99081.10;104705;1294;63287;-77
2023/03/09 09:48:22;;;;;;;;;;;;;;;1.18;80.04;99086.70;104615;1297;73254;-77
2023/03/09 09:51:25;;;;;;;;;;;;;;;1.19;79.98;99102.82;104623;1295;67309;-76
2023/03/09 09:54:40;;;;;;;;;;;;;;;1.20;79.93;99113.34;104668;1295;75395;-77
2023/03/09 09:57:55;;;;;;;;;;;;;;;1.20;79.91;99120.48;104295;1301;61098;-77
2023/03/09 10:00:46;;;;;;;;;;;;;;;1.18;79.88;99127.27;103967;1304;61343;-77
2023/03/09 10:03:37;;;;;;;;;;;;;;;1.20;79.89;99133.54;103843;1309;74977;-77
2023/03/09 10:06:24;;;;;;;;;;;;;;;1.27;80.04;99142.35;103863;1309;67352;-77
2023/03/09 10:09:29;;;;;;;;;;;;;;;1.30;79.95;99148.27;103783;1305;73933;-76
2023/03/09 10:12:16;;;;;;;;;;;;;;;1.31;79.92;99158.46;103791;1303;61198;-76
2023/03/09 10:15:22;;;;;;;;;;;;;;;1.31;79.99;99156.27;103767;1306;61230;-77
2023/03/09 10:18:19;;;;;;;;;;;;;;;1.33;79.85;99161.85;103920;1310;74593;-77
2023/03/09 10:21:11;;;;;;;;;;;;;;;1.27;79.83;99156.77;104051;1299;68639;-77
2023/03/09 10:24:00;;;;;;;;;;;;;;;1.29;79.90;99166.11;104224;1299;71497;-77
2023/03/09 10:26:51;;;;;;;;;;;;;;;1.29;79.81;99170.01;104196;1299;61548;-77
2023/03/09 10:29:40;;;;;;;;;;;;;;;1.28;79.86;99171.55;105166;1299;60044;-77
2023/03/09 10:32:42;;;;;;;;;;;;;;;1.31;79.92;99176.13;105156;1299;73618;-77
2023/03/09 10:35:34;;;;;;;;;;;;;;;1.30;79.85;99181.73;105765;1295;67956;-76
2023/03/09 10:38:22;;;;;;;;;;;;;;;1.32;79.94;99177.30;106268;1286;71313;-77
2023/03/09 10:41:16;;;;;;;;;;;;;;;1.34;79.96;99179.52;105660;1286;61228;-76
2023/03/09 10:44:03;;;;;;;;;;;;;;;1.40;79.99;99179.33;105388;1287;61081;-76
2023/03/09 10:46:58;;;;;;;;;;;;;;;1.43;79.92;99181.02;105216;1286;76020;-77
2023/03/09 10:50:04;;;;;;;;;;;;;;;1.45;79.96;99187.13;105696;1285;68319;-77
2023/03/09 10:52:52;;;;;;;;;;;;;;;1.52;80.18;99194.41;105384;1286;71272;-77
2023/03/09 10:55:41;;;;;;;;;;;;;;;1.58;80.01;99203.71;105403;1289;60999;-77
2023/03/09 10:58:27;;;;;;;;;;;;;;;1.61;80.07;99214.91;105216;1286;59364;-77
2023/03/09 11:01:35;;;;;;;;;;;;;;;1.58;79.82;99224.42;105321;1290;74805;-77
2023/03/09 11:04:21;;;;;;;;;;;;;;;1.49;79.64;99228.21;104681;1295;67574;-77
2023/03/09 11:07:18;;;;;;;;;;;;;;;1.39;79.68;99229.25;104576;1295;71319;-77
2023/03/09 11:10:20;;;;;;;;;;;;;;;1.32;79.84;99225.69;104644;1294;61885;-77
2023/03/09 11:13:17;;;;;;;;;;;;;;;1.29;79.84;99227.38;104663;1294;61145;-77
2023/03/09 11:16:12;;;;;;;;;;;;;;;1.33;80.03;99236.89;104717;1293;74096;-76
2023/03/09 11:19:05;;;;;;;;;;;;;;;1.36;79.92;99248.43;104645;1293;67422;-76
2023/03/09 11:21:58;;;;;;;;;;;;;;;1.37;79.89;99258.45;104696;1297;71260;-77
2023/03/09 11:24:45;;;;;;;;;;;;;;;1.32;79.68;99268.80;104632;1294;59418;-77
2023/03/09 11:27:34;;;;;;;;;;;;;;;1.31;79.77;99272.21;104576;1295;61272;-77
2023/03/09 11:30:22;;;;;;;;;;;;;;;1.29;79.75;99265.91;104657;1294;74218;-77
2023/03/09 11:33:10;;;;;;;;;;;;;;;1.25;79.65;99265.59;104608;1293;68695;-77
2023/03/09 11:35:57;;;;;;;;;;;;;;;1.21;79.65;99262.52;104564;1299;72001;-77
2023/03/09 11:38:44;;;;;;;;;;;;;;;1.22;79.84;99267.28;104695;1294;59413;-77
2023/03/09 11:41:37;;;;;;;;;;;;;;;1.26;79.76;99265.41;104997;1288;59376;-77
2023/03/09 11:44:34;;;;;;;;;;;;;;;1.27;79.76;99261.17;105303;1286;72968;-77
2023/03/09 11:47:44;;;;;;;;;;;;;;;1.30;79.67;99257.27;105376;1292;67302;-77
2023/03/09 11:50:35;;;;;;;;;;;;;;;1.31;79.49;99261.67;104639;1294;71211;-77
2023/03/09 11:53:26;;;;;;;;;;;;;;;1.29;79.50;99273.05;104615;1294;59775;-77
2023/03/09 11:56:15;;;;;;;;;;;;;;;1.30;79.51;99277.13;104705;1299;59890;-77
2023/03/09 11:59:21;;;;;;;;;;;;;;;1.28;79.32;99268.98;104585;1293;74429;-76
2023/03/09 12:02:25;;;;;;;;;;;;;;;1.25;79.43;99267.80;104161;1303;67392;-77
2023/03/09 12:05:13;;;;;;;;;;;;;;;1.25;79.29;99263.71;104071;1314;72368;-77
2023/03/09 12:08:06;;;;;;;;;;;;;;;1.26;79.51;99266.10;105013;1300;59123;-78
2023/03/09 12:11:00;;;;;;;;;;;;;;;1.28;79.31;99273.21;105066;1300;59963;-78
2023/03/09 12:13:51;;;;;;;;;;;;;;;1.30;79.47;99280.35;104172;1300;74165;-77
2023/03/09 12:16:39;;;;;;;;;;;;;;;1.35;79.44;99291.89;104047;1303;67484;-77
2023/03/09 12:19:34;;;;;;;;;;;;;;;1.34;79.26;99299.53;104060;1300;71947;-77
2023/03/09 12:22:28;;;;;;;;;;;;;;;1.35;79.35;99291.38;104995;1300;59198;-77
2023/03/09 12:25:19;;;;;;;;;;;;;;;1.39;79.35;99289.69;105169;1300;59425;-78
2023/03/09 12:28:17;;;;;;;;;;;;;;;1.40;79.27;99286.45;104653;1297;74630;-76
2023/03/09 12:31:04;;;;;;;;;;;;;;;1.39;79.18;99286.45;104533;1300;68015;-77
2023/03/09 12:33:57;;;;;;;;;;;;;;;1.40;79.24;99283.58;104437;1300;71269;-77
2023/03/09 12:36:43;;;;;;;;;;;;;;;1.41;79.25;99286.63;104484;1297;61218;-77
2023/03/09 12:39:38;;;;;;;;;;;;;;;1.42;79.05;99289.17;104920;1286;59367;-77
2023/03/09 12:42:26;;;;;;;;;;;;;;;1.40;79.08;99294.78;105387;1291;73394;-77
2023/03/09 12:45:33;;;;;;;;;;;;;;;1.40;79.15;99298.18;105298;1286;68034;-77
2023/03/09 12:48:30;;;;;;;;;;;;;;;1.40;79.21;99299.36;104692;1295;73697;-76
2023/03/09 12:51:25;;;;;;;;;;;;;;;1.43;79.27;99306.50;104600;1297;61220;-77
2023/03/09 12:54:19;;;;;;;;;;;;;;;1.47;79.32;99308.86;104637;1297;61238;-77
2023/03/09 12:57:17;;;;;;;;;;;;;;;1.51;79.28;99314.48;104693;1297;75025;-77
2023/03/09 13:00:38;;;;;;;;;;;;;;;1.53;79.20;99322.80;105620;1295;67731;-77
2023/03/09 13:03:24;;;;;;;;;;;;;;;1.56;79.33;99323.80;104876;1303;72366;-77
2023/03/09 13:06:19;;;;;;;;;;;;;;;1.60;79.24;99319.54;105053;1306;58898;-78
2023/03/09 13:09:26;;;;;;;;;;;;;;;1.64;79.20;99320.21;105026;1304;59603;-78
2023/03/09 13:12:15;;;;;;;;;;;;;;;1.66;79.08;99325.48;104987;1302;73588;-78
2023/03/09 13:15:25;;;;;;;;;;;;;;;1.66;79.04;99329.89;104266;1303;69087;-77
2023/03/09 13:18:12;;;;;;;;;;;;;;;1.66;79.03;99327.02;104151;1306;73139;-77
2023/03/09 13:21:18;;;;;;;;;;;;;;;1.65;78.93;99331.25;104112;1300;62096;-77
2023/03/09 13:24:10;;;;;;;;;;;;;;;1.64;79.07;99338.89;104139;1301;62825;-77
2023/03/09 13:27:26;;;;;;;;;;;;;;;1.60;78.89;99335.66;104602;1294;74892;-77
2023/03/09 13:30:32;;;;;;;;;;;;;;;1.55;79.00;99344.53;103926;1303;67032;-76
2023/03/09 13:33:29;;;;;;;;;;;;;;;1.53;79.07;99350.98;103557;1312;73028;-76
2023/03/09 13:36:22;;;;;;;;;;;;;;;1.54;79.23;99356.24;103448;1308;59736;-77
2023/03/09 13:39:16;;;;;;;;;;;;;;;1.56;79.17;99362.34;104117;1305;59417;-75
2023/03/09 13:42:04;;;;;;;;;;;;;;;1.57;79.15;99363.35;104134;1300;74301;-75
2023/03/09 13:44:52;;;;;;;;;;;;;;;1.58;79.10;99365.73;104109;1306;66469;-75
2023/03/09 13:47:38;;;;;;;;;;;;;;;1.57;79.01;99365.73;104127;1306;74569;-76
2023/03/09 13:50:26;;;;;;;;;;;;;;;1.55;79.01;99368.14;104179;1306;59340;-76
2023/03/09 13:53:35;;;;;;;;;;;;;;;1.55;79.06;99372.05;104045;1303;59488;-78
2023/03/09 13:56:21;;;;;;;;;;;;;;;1.56;79.05;99375.24;103518;1309;74854;-77
2023/03/09 13:59:13;;;;;;;;;;;;;;;1.56;79.03;99374.05;103595;1309;69156;-75
2023/03/09 14:02:02;;;;;;;;;;;;;;;1.57;79.03;99377.11;104457;1309;72261;-75
2023/03/09 14:04:50;;;;;;;;;;;;;;;1.56;79.05;99378.46;104357;1308;59392;-74
2023/03/09 14:07:41;;;;;;;;;;;;;;;1.54;78.85;99372.72;104029;1304;60281;-74
2023/03/09 14:10:28;;;;;;;;;;;;;;;1.55;79.01;99370.86;104211;1294;73838;-73
2023/03/09 14:13:34;;;;;;;;;;;;;;;1.56;79.09;99368.12;104585;1296;67311;-75
2023/03/09 14:16:20;;;;;;;;;;;;;;;1.58;79.10;99366.06;103890;1303;71400;-75
2023/03/09 14:19:19;;;;;;;;;;;;;;;1.60;79.18;99367.60;103958;1303;59785;-79
2023/03/09 14:22:16;;;;;;;;;;;;;;;1.61;79.00;99367.27;103876;1304;61306;-75
2023/03/09 14:25:20;;;;;;;;;;;;;;;1.59;78.97;99362.67;103851;1302;72592;-76
2023/03/09 14:28:23;;;;;;;;;;;;;;;1.59;79.00;99365.39;103878;1303;67474;-75
2023/03/09 14:31:38;;;;;;;;;;;;;;;1.61;79.00;99365.39;103970;1306;72637;-75
2023/03/09 14:34:26;;;;;;;;;;;;;;;1.58;78.91;99366.07;104045;1303;61295;-76
2023/03/09 14:37:31;;;;;;;;;;;;;;;1.57;78.95;99375.06;104102;1299;61162;-75
2023/03/09 14:40:23;;;;;;;;;;;;;;;1.58;78.96;99370.48;105209;1299;74037;-75